Shin-oh Maru — JG5594 — position and weather

sailwx.info

Track history (hours):
 
Tides and Currents Weather Stations Pressure Air Temp Water Temp Dewpoint Dewpoint Depression Visibility Wind Speed Wind Dir Waves Ship Positions

Shin-oh Maru

Last reported at 2016-Jul-26 17:33 UTC. Time now 2016-Jul-26 18:02 UTC.
Position N 34°55' E 140°08'.

Length 161 m; draft 6.8 m.

Type: Cargo ship. MMSI: 431100859.

Date/timePositionNaut miles runAvg speedWind from/ knotsBaromVisibWave heightAir tempDewpointWater temp
2016-Jul-26 17:33N 34°55' E 140°08'1818.0
2016-Jul-26 16:33N 34°54' E 139°47'1717.5
2016-Jul-26 15:33N 35°11' E 139°46'1313.0
2016-Jul-26 14:34N 35°24' E 139°43'1313.3
2016-Jul-26 13:33N 35°37' E 139°46'0 0.5
2016-Jul-26 12:32N 35°38' E 139°46'0 0.0
2016-Jul-26 11:32N 35°38' E 139°46'0 0.0
2016-Jul-26 10:32N 35°38' E 139°46'0 0.0
2016-Jul-26 09:32N 35°38' E 139°46'0 0.2
2016-Jul-26 08:33N 35°37' E 139°46'1313.0
2016-Jul-26 07:33N 35°25' E 139°47'1111.4
2016-Jul-26 06:33N 35°13' E 139°47'1918.2
2016-Jul-26 05:32N 34°55' E 139°45'1717.1
2016-Jul-26 04:33N 34°55' E 140°06'2220.3
2016-Jul-26 03:29N 35°07' E 140°28'1920.4
2016-Jul-26 02:33N 35°22' E 140°42'2120.0
2016-Jul-26 01:29N 35°40' E 140°56'1919.6
2016-Jul-26 00:32N 35°58' E 141°04'1919.3
2016-Jul-25 23:33N 36°16' E 141°08'2019.4
2016-Jul-25 22:31N 36°36' E 141°14'1919.0
2016-Jul-25 21:33N 36°53' E 141°21'2218.6
2016-Jul-25 20:23N 37°14' E 141°28'44 1.0
2016-Jul-24 00:26N 36°31' E 141°15'1717.9
2016-Jul-23 23:30N 36°15' E 141°10'3517.7
2016-Jul-23 21:30N 35°41' E 140°58'1617.3
2016-Jul-23 20:34N 35°27' E 140°48'1818.2
2016-Jul-23 19:33N 35°12' E 140°35'1817.9
2016-Jul-23 18:33N 35°00' E 140°19'1817.5
2016-Jul-23 17:33N 34°51' E 140°00'1615.9
2016-Jul-23 16:33N 34°58' E 139°43'1717.5
2016-Jul-23 15:34N 35°15' E 139°46'1413.5
2016-Jul-23 14:33N 35°28' E 139°49'10 9.9
2016-Jul-23 13:33N 35°38' E 139°46'0 0.0
2016-Jul-23 12:33N 35°38' E 139°46'0 0.0
2016-Jul-23 11:33N 35°38' E 139°46'0 0.0
2016-Jul-23 10:33N 35°38' E 139°46'0 0.0
2016-Jul-23 09:30N 35°38' E 139°46'0 0.0
2016-Jul-23 08:33N 35°38' E 139°46'1212.2
2016-Jul-23 07:34N 35°26' E 139°48'1212.1
2016-Jul-23 06:33N 35°14' E 139°47'2411.9
2016-Jul-23 04:34N 34°53' E 140°02'2119.4
2016-Jul-23 03:29N 35°04' E 140°24'2219.1
2016-Jul-23 02:20N 35°21' E 140°41'1917.7
2016-Jul-23 01:15N 35°37' E 140°54'36 0.7
2016-Jul-20 22:23N 36°11' E 141°07'1719.9
2016-Jul-20 21:33N 35°55' E 141°02'1919.4
2016-Jul-20 20:33N 35°37' E 140°56'2720.2
2016-Jul-20 19:13N 35°14' E 140°37'1319.7
2016-Jul-20 18:33N 35°04' E 140°27'1919.6
2016-Jul-20 17:33N 34°54' E 140°07'1717.4
2016-Jul-20 16:33N 34°55' E 139°46'1817.8
2016-Jul-20 15:33N 35°12' E 139°46'1313.2
2016-Jul-20 14:33N 35°26' E 139°45'1212.1
2016-Jul-20 13:34N 35°38' E 139°46'0 0.0
2016-Jul-20 12:32N 35°38' E 139°46'0 0.0
2016-Jul-20 11:32N 35°38' E 139°46'0 0.0
2016-Jul-20 10:32N 35°38' E 139°46'0 0.0
2016-Jul-20 09:29N 35°38' E 139°46'0 0.0
2016-Jul-20 08:32N 35°38' E 139°46'0 0.3
2016-Jul-20 07:33N 35°37' E 139°46'1413.7
2016-Jul-20 06:34N 35°24' E 139°46'1313.1
2016-Jul-20 05:34N 35°11' E 139°47'3411.0
2016-Jul-20 02:31N 35°08' E 140°28'1817.8
2016-Jul-20 01:32N 35°21' E 140°41'1817.3
2016-Jul-20 00:30N 35°36' E 140°53'1818.3
2016-Jul-19 23:30N 35°54' E 140°60'1718.6
2016-Jul-19 22:34N 36°11' E 141°03'  
2016-Jul-16 22:24N 36°13' E 141°04'1518.3
2016-Jul-16 21:33N 35°57' E 141°05'1818.4
2016-Jul-16 20:34N 35°40' E 140°59'1919.3
2016-Jul-16 19:33N 35°24' E 140°45'2019.1
2016-Jul-16 18:29N 35°08' E 140°30'1718.3
2016-Jul-16 17:33N 34°58' E 140°13'  
Track history (hours):
 
Tides and Currents Weather Stations Pressure Air Temp Water Temp Dewpoint Dewpoint Depression Visibility Wind Speed Wind Dir Waves Ship Positions

Shin-oh Maru

Last reported at 2016-Jul-26 17:33 UTC. Time now 2016-Jul-26 18:02 UTC.
Position N 34°55' E 140°08'.

Length 161 m; draft 6.8 m.

Type: Cargo ship. MMSI: 431100859.

Date/timePositionNaut miles runAvg speedWind from/ knotsBaromVisibWave heightAir tempDewpointWater temp
2016-Jul-26 17:33N 34°55' E 140°08'1818.0
2016-Jul-26 16:33N 34°54' E 139°47'1717.5
2016-Jul-26 15:33N 35°11' E 139°46'1313.0
2016-Jul-26 14:34N 35°24' E 139°43'1313.3
2016-Jul-26 13:33N 35°37' E 139°46'0 0.5
2016-Jul-26 12:32N 35°38' E 139°46'0 0.0
2016-Jul-26 11:32N 35°38' E 139°46'0 0.0
2016-Jul-26 10:32N 35°38' E 139°46'0 0.0
2016-Jul-26 09:32N 35°38' E 139°46'0 0.2
2016-Jul-26 08:33N 35°37' E 139°46'1313.0
2016-Jul-26 07:33N 35°25' E 139°47'1111.4
2016-Jul-26 06:33N 35°13' E 139°47'1918.2
2016-Jul-26 05:32N 34°55' E 139°45'1717.1
2016-Jul-26 04:33N 34°55' E 140°06'2220.3
2016-Jul-26 03:29N 35°07' E 140°28'1920.4
2016-Jul-26 02:33N 35°22' E 140°42'2120.0
2016-Jul-26 01:29N 35°40' E 140°56'1919.6
2016-Jul-26 00:32N 35°58' E 141°04'1919.3
2016-Jul-25 23:33N 36°16' E 141°08'2019.4
2016-Jul-25 22:31N 36°36' E 141°14'1919.0
2016-Jul-25 21:33N 36°53' E 141°21'2218.6
2016-Jul-25 20:23N 37°14' E 141°28'44 1.0
2016-Jul-24 00:26N 36°31' E 141°15'1717.9
2016-Jul-23 23:30N 36°15' E 141°10'3517.7
2016-Jul-23 21:30N 35°41' E 140°58'1617.3
2016-Jul-23 20:34N 35°27' E 140°48'1818.2
2016-Jul-23 19:33N 35°12' E 140°35'1817.9
2016-Jul-23 18:33N 35°00' E 140°19'1817.5
2016-Jul-23 17:33N 34°51' E 140°00'1615.9
2016-Jul-23 16:33N 34°58' E 139°43'1717.5
2016-Jul-23 15:34N 35°15' E 139°46'1413.5
2016-Jul-23 14:33N 35°28' E 139°49'10 9.9
2016-Jul-23 13:33N 35°38' E 139°46'0 0.0
2016-Jul-23 12:33N 35°38' E 139°46'0 0.0
2016-Jul-23 11:33N 35°38' E 139°46'0 0.0
2016-Jul-23 10:33N 35°38' E 139°46'0 0.0
2016-Jul-23 09:30N 35°38' E 139°46'0 0.0
2016-Jul-23 08:33N 35°38' E 139°46'1212.2
2016-Jul-23 07:34N 35°26' E 139°48'1212.1
2016-Jul-23 06:33N 35°14' E 139°47'2411.9
2016-Jul-23 04:34N 34°53' E 140°02'2119.4
2016-Jul-23 03:29N 35°04' E 140°24'2219.1
2016-Jul-23 02:20N 35°21' E 140°41'1917.7
2016-Jul-23 01:15N 35°37' E 140°54'36 0.7
2016-Jul-20 22:23N 36°11' E 141°07'1719.9
2016-Jul-20 21:33N 35°55' E 141°02'1919.4
2016-Jul-20 20:33N 35°37' E 140°56'2720.2
2016-Jul-20 19:13N 35°14' E 140°37'1319.7
2016-Jul-20 18:33N 35°04' E 140°27'1919.6
2016-Jul-20 17:33N 34°54' E 140°07'1717.4
2016-Jul-20 16:33N 34°55' E 139°46'1817.8
2016-Jul-20 15:33N 35°12' E 139°46'1313.2
2016-Jul-20 14:33N 35°26' E 139°45'1212.1
2016-Jul-20 13:34N 35°38' E 139°46'0 0.0
2016-Jul-20 12:32N 35°38' E 139°46'0 0.0
2016-Jul-20 11:32N 35°38' E 139°46'0 0.0
2016-Jul-20 10:32N 35°38' E 139°46'0 0.0
2016-Jul-20 09:29N 35°38' E 139°46'0 0.0
2016-Jul-20 08:32N 35°38' E 139°46'0 0.3
2016-Jul-20 07:33N 35°37' E 139°46'1413.7
2016-Jul-20 06:34N 35°24' E 139°46'1313.1
2016-Jul-20 05:34N 35°11' E 139°47'3411.0
2016-Jul-20 02:31N 35°08' E 140°28'1817.8
2016-Jul-20 01:32N 35°21' E 140°41'1817.3
2016-Jul-20 00:30N 35°36' E 140°53'1818.3
2016-Jul-19 23:30N 35°54' E 140°60'1718.6
2016-Jul-19 22:34N 36°11' E 141°03'  
2016-Jul-16 22:24N 36°13' E 141°04'1518.3
2016-Jul-16 21:33N 35°57' E 141°05'1818.4
2016-Jul-16 20:34N 35°40' E 140°59'1919.3
2016-Jul-16 19:33N 35°24' E 140°45'2019.1
2016-Jul-16 18:29N 35°08' E 140°30'1718.3
2016-Jul-16 17:33N 34°58' E 140°13'  

Dump ship's entire track history